Time;durP1;ratioP1;P1;durP2;ratioP2;P2;SDS_P1;SDS_P2;PMS_P1;PMS_P2;Temp;Humidity;BMP_temperature;BMP_pressure;BME280_temperature;BME280_humidity;BME280_pressure;Samples;Min_cycle;Max_cycle;Signal;HPM_P1;HPM_P2
2021/11/30 00:01:34;;;;;;;79.68;71.13;;;;;;;2.14;100.00;99618.53;5033643;28;20478;-80
2021/11/30 00:04:02;;;;;;;80.68;72.50;;;;;;;1.95;100.00;99627.69;5033475;28;20119;-79
2021/11/30 00:06:29;;;;;;;84.82;73.22;;;;;;;2.09;100.00;99628.75;5033835;28;20057;-80
2021/11/30 00:09:09;;;;;;;87.30;78.22;;;;;;;2.51;100.00;99630.78;5033694;28;20469;-80
2021/11/30 00:11:34;;;;;;;97.43;87.43;;;;;;;2.22;100.00;99635.97;5033528;28;20045;-80
2021/11/30 00:14:01;;;;;;;81.22;72.88;;;;;;;2.26;100.00;99637.25;5033477;28;20053;-79
2021/11/30 00:16:28;;;;;;;96.03;79.75;;;;;;;2.10;100.00;99624.31;5033732;28;20061;-80
2021/11/30 00:18:55;;;;;;;92.07;82.60;;;;;;;2.29;100.00;99623.78;5033418;28;20422;-79
2021/11/30 00:21:23;;;;;;;91.80;77.13;;;;;;;2.33;100.00;99634.72;5033692;28;20045;-80
2021/11/30 00:23:49;;;;;;;104.47;86.47;;;;;;;2.18;100.00;99645.19;5033848;28;20110;-80
2021/11/30 00:26:16;;;;;;;103.50;91.15;;;;;;;2.17;100.00;99639.13;5033620;28;20053;-79
2021/11/30 00:28:43;;;;;;;110.32;98.75;;;;;;;1.98;100.00;99647.50;5033214;28;20478;-79
2021/11/30 00:31:09;;;;;;;100.30;89.85;;;;;;;2.09;100.00;99651.47;5033383;28;20103;-80
2021/11/30 00:33:36;;;;;;;93.30;85.20;;;;;;;2.26;100.00;99645.91;5033227;28;20107;-80
2021/11/30 00:36:03;;;;;;;95.63;87.70;;;;;;;2.33;100.00;99627.69;5033507;28;20065;-80
2021/11/30 00:38:31;;;;;;;89.50;81.45;;;;;;;2.38;100.00;99627.97;5033515;28;20057;-79
2021/11/30 00:40:58;;;;;;;94.03;85.28;;;;;;;2.30;100.00;99622.81;5033425;28;20047;-80
2021/11/30 00:43:31;;;;;;;103.30;94.38;;;;;;;2.30;100.00;99622.81;5033599;28;20046;-79
2021/11/30 00:46:01;;;;;;;94.65;85.95;;;;;;;2.29;100.00;99626.41;5033407;28;20132;-78
2021/11/30 00:48:31;;;;;;;92.15;82.35;;;;;;;2.13;100.00;99639.66;5033393;28;20045;-80
2021/11/30 00:51:01;;;;;;;82.60;73.90;;;;;;;1.88;100.00;99645.13;5035371;28;20111;-80
2021/11/30 00:53:28;;;;;;;104.65;94.20;;;;;;;2.03;100.00;99655.63;5036995;28;20482;-79
2021/11/30 00:55:56;;;;;;;93.07;83.82;;;;;;;2.01;100.00;99655.81;5037274;28;20077;-80
2021/11/30 00:58:23;;;;;;;89.88;80.65;;;;;;;2.17;100.00;99654.03;5037274;28;20111;-80
2021/11/30 01:00:50;;;;;;;94.55;85.03;;;;;;;2.30;100.00;99667.38;5037053;28;20563;-78
2021/11/30 01:03:17;;;;;;;85.55;77.05;;;;;;;2.34;100.00;99652.91;5036739;28;20060;-80
2021/11/30 01:05:44;;;;;;;89.15;81.07;;;;;;;2.45;100.00;99660.34;5037107;28;20057;-80
2021/11/30 01:08:10;;;;;;;79.57;72.07;;;;;;;2.36;100.00;99639.59;5036738;28;20046;-80
2021/11/30 01:10:37;;;;;;;85.93;75.55;;;;;;;2.11;100.00;99647.69;5036718;28;20045;-78
2021/11/30 01:13:05;;;;;;;103.68;84.80;;;;;;;2.27;100.00;99637.09;5037113;28;20469;-78
2021/11/30 01:15:33;;;;;;;95.50;86.88;;;;;;;2.20;100.00;99637.97;5036672;28;20524;-79
2021/11/30 01:18:00;;;;;;;94.05;84.22;;;;;;;2.31;100.00;99641.97;5036856;28;20402;-82
2021/11/30 01:20:27;;;;;;;93.90;85.22;;;;;;;2.31;100.00;99632.28;5036525;28;20486;-79
2021/11/30 01:22:56;;;;;;;96.43;88.35;;;;;;;2.10;100.00;99635.59;5036873;28;20451;-79
2021/11/30 01:25:23;;;;;;;100.30;90.30;;;;;;;2.10;100.00;99643.47;5036831;28;20084;-79
2021/11/30 01:27:49;;;;;;;102.95;92.57;;;;;;;1.91;100.00;99638.72;5036455;28;20049;-79
2021/11/30 01:30:18;;;;;;;111.50;97.65;;;;;;;1.89;100.00;99645.91;5036382;28;20053;-82
2021/11/30 01:32:47;;;;;;;107.72;88.93;;;;;;;2.00;100.00;99653.38;5036214;28;20111;-82
2021/11/30 01:35:16;;;;;;;109.60;95.05;;;;;;;2.31;100.00;99658.50;5036330;28;20456;-80
2021/11/30 01:37:43;;;;;;;118.25;104.20;;;;;;;2.60;100.00;99654.28;5036164;28;20101;-80
2021/11/30 01:40:14;;;;;;;112.25;99.97;;;;;;;2.72;100.00;99651.06;5036250;28;20536;-79
2021/11/30 01:42:44;;;;;;;110.70;99.22;;;;;;;2.94;100.00;99657.19;5036062;28;20100;-80
2021/11/30 01:45:19;;;;;;;102.20;91.65;;;;;;;3.08;100.00;99652.91;5036104;28;20569;-78
2021/11/30 01:48:09;;;;;;;112.28;100.40;;;;;;;2.92;100.00;99660.97;5036385;28;20071;-80
2021/11/30 01:50:39;;;;;;;145.30;117.65;;;;;;;2.89;100.00;99661.34;5036263;28;20138;-80
2021/11/30 01:53:07;;;;;;;129.77;102.45;;;;;;;2.78;100.00;99659.16;5036023;28;20053;-80
2021/11/30 01:55:35;;;;;;;122.82;100.10;;;;;;;2.80;100.00;99651.94;5035945;28;20096;-80
2021/11/30 01:58:03;;;;;;;144.73;103.60;;;;;;;2.59;100.00;99650.03;5036108;28;20464;-80
2021/11/30 02:00:30;;;;;;;136.20;103.18;;;;;;;2.42;100.00;99652.84;5036151;28;20056;-78
2021/11/30 02:02:58;;;;;;;106.75;91.03;;;;;;;2.50;100.00;99646.69;5034844;28;20056;-79
2021/11/30 02:05:25;;;;;;;102.97;90.13;;;;;;;2.24;100.00;99650.53;5035661;28;20457;-80
2021/11/30 02:07:52;;;;;;;110.43;96.97;;;;;;;2.57;100.00;99658.06;5035859;28;20476;-80
2021/11/30 02:10:19;;;;;;;107.18;95.05;;;;;;;2.47;100.00;99658.34;5035655;28;20526;-78
2021/11/30 02:12:46;;;;;;;111.20;98.28;;;;;;;2.63;100.00;99657.38;5035903;28;20041;-79
2021/11/30 02:15:13;;;;;;;131.57;109.25;;;;;;;2.85;100.00;99655.66;5035561;28;20469;-80
2021/11/30 02:17:40;;;;;;;193.88;125.80;;;;;;;2.69;100.00;99653.19;5035504;28;20466;-80
2021/11/30 02:20:10;;;;;;;145.77;110.78;;;;;;;2.55;100.00;99662.69;5035742;28;20115;-78
2021/11/30 02:22:37;;;;;;;186.25;127.20;;;;;;;2.57;100.00;99668.56;5035761;28;20115;-79
2021/11/30 02:25:04;;;;;;;186.13;128.95;;;;;;;2.75;100.00;99666.41;5035695;28;20046;-81
2021/11/30 02:27:31;;;;;;;199.63;128.23;;;;;;;2.92;100.00;99674.91;5035382;28;20103;-80
2021/11/30 02:29:58;;;;;;;182.95;119.63;;;;;;;3.07;100.00;99664.41;5035374;28;20049;-81
2021/11/30 02:32:25;;;;;;;169.65;112.15;;;;;;;3.21;100.00;99665.41;5035164;28;20079;-79
2021/11/30 02:34:52;;;;;;;164.23;125.55;;;;;;;3.36;100.00;99663.56;5035474;28;20057;-81
2021/11/30 02:37:24;;;;;;;166.27;126.97;;;;;;;3.11;100.00;99662.22;5035775;28;20049;-82
2021/11/30 02:39:52;;;;;;;185.25;134.82;;;;;;;2.81;100.00;99667.47;5035124;28;20049;-78
2021/11/30 02:42:19;;;;;;;177.15;141.75;;;;;;;3.02;100.00;99668.56;5035152;28;20115;-80
2021/11/30 02:44:45;;;;;;;162.38;128.18;;;;;;;3.07;100.00;99659.16;5035329;28;20111;-79
2021/11/30 02:47:14;;;;;;;168.27;135.40;;;;;;;3.14;100.00;99665.28;5035051;28;20462;-79
2021/11/30 02:49:44;;;;;;;136.73;121.65;;;;;;;3.13;100.00;99683.84;5035448;28;20046;-81
2021/11/30 02:52:13;;;;;;;129.77;104.22;;;;;;;3.06;100.00;99672.47;5035133;28;20053;-80
2021/11/30 02:54:43;;;;;;;118.53;99.70;;;;;;;3.13;100.00;99668.13;5034727;28;20053;-80
2021/11/30 02:57:13;;;;;;;121.28;104.93;;;;;;;3.15;100.00;99668.75;5034993;28;20107;-80
2021/11/30 02:59:42;;;;;;;116.50;103.68;;;;;;;2.92;100.00;99664.41;5034781;28;20118;-80
2021/11/30 03:02:13;;;;;;;118.15;106.53;;;;;;;3.10;100.00;99666.66;5161801;22;20053;-81
2021/11/30 03:04:40;;;;;;;112.63;100.65;;;;;;;3.27;100.00;99650.69;5054144;28;20045;-81
2021/11/30 03:07:11;;;;;;;114.45;102.68;;;;;;;3.35;100.00;99646.16;5054081;28;20064;-79
2021/11/30 03:09:38;;;;;;;120.05;107.43;;;;;;;3.37;100.00;99638.13;5054433;28;20536;-79
2021/11/30 03:12:08;;;;;;;108.13;96.47;;;;;;;3.44;100.00;99633.75;5054387;28;20056;-80
2021/11/30 03:14:35;;;;;;;103.85;92.60;;;;;;;3.62;100.00;99641.19;5053367;28;20550;-78
2021/11/30 03:17:02;;;;;;;117.82;105.05;;;;;;;3.61;100.00;99637.75;5054809;28;20129;-78
2021/11/30 03:19:30;;;;;;;117.30;105.28;;;;;;;3.43;100.00;99638.19;5054432;28;20060;-79
2021/11/30 03:21:58;;;;;;;126.10;113.72;;;;;;;3.52;100.00;99636.25;5054251;28;20126;-80
2021/11/30 03:24:25;;;;;;;127.53;114.45;;;;;;;3.59;100.00;99631.88;5054192;28;20049;-81
2021/11/30 03:26:52;;;;;;;142.70;129.77;;;;;;;3.70;100.00;99635.03;5054368;28;20134;-80
2021/11/30 03:29:20;;;;;;;128.75;117.65;;;;;;;3.81;100.00;99630.09;5054023;28;20102;-80
2021/11/30 03:31:50;;;;;;;117.57;107.47;;;;;;;3.82;100.00;99621.19;5053960;28;20045;-81
2021/11/30 03:34:18;;;;;;;111.25;102.20;;;;;;;4.07;100.00;99620.78;5054006;28;20515;-81
2021/11/30 03:36:49;;;;;;;80.38;73.47;;;;;;;4.02;100.00;99616.09;5054228;28;20048;-79
2021/11/30 03:39:17;;;;;;;83.70;76.57;;;;;;;4.26;100.00;99628.00;5053929;28;20106;-80
2021/11/30 03:41:45;;;;;;;74.90;68.43;;;;;;;4.15;100.00;99611.97;5054112;28;20057;-79
2021/11/30 03:44:12;;;;;;;80.65;74.30;;;;;;;4.28;100.00;99609.44;5053830;28;20055;-81
2021/11/30 03:46:40;;;;;;;77.55;71.25;;;;;;;5.06;100.00;99610.06;5053816;28;20057;-81
2021/11/30 03:49:08;;;;;;;76.18;70.05;;;;;;;4.08;100.00;99612.69;5053762;28;20459;-79
2021/11/30 03:51:35;;;;;;;85.45;78.45;;;;;;;3.93;100.00;99609.34;5053735;28;20374;-81
2021/11/30 03:54:02;;;;;;;78.60;72.30;;;;;;;3.75;100.00;99603.75;5053865;28;20386;-80
2021/11/30 03:56:29;;;;;;;98.85;91.15;;;;;;;3.90;100.00;99602.69;5053866;28;20052;-79
2021/11/30 03:58:56;;;;;;;97.70;90.22;;;;;;;3.80;100.00;99589.03;5053830;28;20041;-79
2021/11/30 04:01:23;;;;;;;91.10;84.20;;;;;;;3.85;100.00;99580.59;5053440;28;20090;-81
2021/11/30 04:03:51;;;;;;;95.25;87.45;;;;;;;4.02;100.00;99579.31;5053462;28;20501;-81
2021/11/30 04:06:18;;;;;;;87.90;80.88;;;;;;;3.92;100.00;99567.53;5053594;28;20443;-78
2021/11/30 04:08:45;;;;;;;96.07;88.55;;;;;;;3.96;100.00;99569.56;5053802;28;20079;-81
2021/11/30 04:11:12;;;;;;;90.82;83.55;;;;;;;4.47;100.00;99558.78;5053588;28;20049;-80
2021/11/30 04:13:38;;;;;;;85.65;79.18;;;;;;;4.30;100.00;99560.13;5053678;28;20049;-80
2021/11/30 04:16:06;;;;;;;78.22;72.13;;;;;;;3.76;100.00;99565.97;5053673;28;20103;-79
2021/11/30 04:18:33;;;;;;;76.28;70.07;;;;;;;3.86;100.00;99569.09;5053319;28;20123;-79
2021/11/30 04:21:02;;;;;;;81.25;74.53;;;;;;;4.29;100.00;99569.78;5053753;28;20055;-79
2021/11/30 04:23:28;;;;;;;89.50;82.53;;;;;;;3.89;100.00;99569.50;5053709;28;20048;-79
2021/11/30 04:25:55;;;;;;;91.80;84.93;;;;;;;4.32;100.00;99577.28;5053054;28;20440;-79
2021/11/30 04:28:22;;;;;;;85.95;79.28;;;;;;;3.99;100.00;99578.88;5053122;28;20468;-80
2021/11/30 04:30:49;;;;;;;86.65;80.05;;;;;;;4.00;100.00;99576.06;5053458;28;20049;-80
2021/11/30 04:33:16;;;;;;;87.18;80.32;;;;;;;3.94;100.00;99584.72;5053144;28;20106;-79
2021/11/30 04:35:43;;;;;;;86.57;79.68;;;;;;;3.96;100.00;99574.00;5051738;28;20045;-79
2021/11/30 04:38:11;;;;;;;79.90;73.28;;;;;;;3.88;100.00;99573.16;5053428;28;20118;-81
2021/11/30 04:40:37;;;;;;;77.93;71.22;;;;;;;3.71;100.00;99568.34;5053099;28;20119;-78
2021/11/30 04:43:07;;;;;;;82.60;75.22;;;;;;;3.88;100.00;99567.91;5053362;28;20110;-80
2021/11/30 04:45:46;;;;;;;84.90;77.95;;;;;;;3.93;100.00;99569.94;5053078;28;20537;-79
2021/11/30 04:48:15;;;;;;;100.88;92.93;;;;;;;3.71;100.00;99584.13;5053345;28;20044;-78
2021/11/30 04:50:44;;;;;;;89.85;82.53;;;;;;;3.68;100.00;99585.31;5053322;28;20045;-80
2021/11/30 04:53:12;;;;;;;93.13;86.20;;;;;;;3.82;100.00;99592.31;5052818;28;20052;-81
2021/11/30 04:55:39;;;;;;;88.97;81.95;;;;;;;3.81;100.00;99585.44;5053343;28;20056;-80
2021/11/30 04:58:06;;;;;;;89.80;82.38;;;;;;;3.96;100.00;99593.22;5053043;28;20049;-80
2021/11/30 05:00:35;;;;;;;91.75;84.57;;;;;;;4.68;100.00;99601.78;5052990;28;20118;-79
2021/11/30 05:03:02;;;;;;;85.22;78.60;;;;;;;4.03;100.00;99604.59;5053084;28;20152;-79
2021/11/30 05:05:28;;;;;;;72.68;66.43;;;;;;;3.83;100.00;99611.50;5053229;28;20114;-79
2021/11/30 05:07:55;;;;;;;72.10;65.93;;;;;;;4.53;100.00;99609.78;5052917;28;20106;-79
2021/11/30 05:10:23;;;;;;;74.93;68.85;;;;;;;4.30;100.00;99607.44;5053122;28;20057;-80
2021/11/30 05:12:50;;;;;;;88.18;81.28;;;;;;;4.47;100.00;99608.72;5053012;28;20115;-80
2021/11/30 05:15:17;;;;;;;85.60;78.57;;;;;;;3.64;100.00;99605.88;5053376;28;20118;-79
2021/11/30 05:17:44;;;;;;;90.88;83.80;;;;;;;4.70;100.00;99610.28;5052960;28;20049;-81
2021/11/30 05:20:12;;;;;;;92.05;85.03;;;;;;;5.16;100.00;99618.38;5052984;28;20468;-80
2021/11/30 05:22:39;;;;;;;82.97;76.45;;;;;;;4.30;100.00;99608.25;5053039;28;20041;-80
2021/11/30 05:25:07;;;;;;;89.40;82.50;;;;;;;3.76;100.00;99610.63;5052777;28;20098;-79
2021/11/30 05:27:40;;;;;;;103.60;95.22;;;;;;;3.67;100.00;99607.31;5052900;28;20067;-79
2021/11/30 05:30:09;;;;;;;96.45;88.20;;;;;;;3.81;100.00;99611.69;5052904;28;20089;-79
2021/11/30 05:32:36;;;;;;;91.60;84.20;;;;;;;3.78;100.00;99614.69;5052891;28;20045;-80
2021/11/30 05:35:03;;;;;;;100.45;92.22;;;;;;;3.68;100.00;99615.00;5052940;28;20471;-80
2021/11/30 05:37:30;;;;;;;93.55;85.80;;;;;;;4.19;100.00;99631.59;5053705;28;20494;-80
2021/11/30 05:39:56;;;;;;;93.38;85.70;;;;;;;4.09;100.00;99626.69;5056216;28;20041;-80
2021/11/30 05:42:23;;;;;;;107.45;98.57;;;;;;;4.20;100.00;99641.09;5056359;28;20048;-79
2021/11/30 05:44:51;;;;;;;89.05;81.72;;;;;;;3.72;100.00;99646.13;5056105;28;20530;-81
2021/11/30 05:47:18;;;;;;;111.60;101.75;;;;;;;4.35;100.00;99657.59;5056402;28;20052;-78
2021/11/30 05:49:45;;;;;;;101.22;92.03;;;;;;;3.85;100.00;99665.47;5056231;28;20402;-80
2021/11/30 05:52:11;;;;;;;104.85;95.75;;;;;;;4.52;100.00;99661.56;5055894;28;20467;-81
2021/11/30 05:54:39;;;;;;;94.78;86.35;;;;;;;3.85;100.00;99660.22;5055801;28;20057;-80
2021/11/30 05:57:07;;;;;;;99.75;90.30;;;;;;;3.85;100.00;99660.22;5056229;28;20044;-80
2021/11/30 05:59:38;;;;;;;101.97;91.43;;;;;;;3.72;100.00;99661.91;5056041;28;20139;-80
2021/11/30 06:02:08;;;;;;;107.93;97.03;;;;;;;3.90;100.00;99670.16;5055794;28;20064;-81
2021/11/30 06:04:35;;;;;;;113.50;101.55;;;;;;;3.59;100.00;99670.47;5055973;28;20080;-80
2021/11/30 06:07:02;;;;;;;110.32;99.72;;;;;;;3.79;100.00;99678.56;5055683;28;20049;-79
2021/11/30 06:09:29;;;;;;;109.25;99.13;;;;;;;3.73;100.00;99680.09;5056211;28;20045;-81
2021/11/30 06:11:57;;;;;;;106.07;96.32;;;;;;;3.89;100.00;99686.94;5055862;28;20045;-79
2021/11/30 06:14:23;;;;;;;104.15;94.18;;;;;;;3.92;100.00;99683.13;5055556;28;20059;-79
2021/11/30 06:16:50;;;;;;;110.70;100.10;;;;;;;3.75;100.00;99685.16;5055511;28;20053;-81
2021/11/30 06:19:20;;;;;;;108.93;98.47;;;;;;;3.80;100.00;99694.09;5055772;28;20057;-80
2021/11/30 06:21:47;;;;;;;120.65;108.18;;;;;;;3.84;100.00;99698.00;5055458;28;20055;-79
2021/11/30 06:24:14;;;;;;;107.47;96.65;;;;;;;3.76;100.00;99689.44;5055381;28;20049;-79
2021/11/30 06:26:41;;;;;;;109.95;99.45;;;;;;;3.90;100.00;99696.41;5055630;28;20052;-80
2021/11/30 06:29:08;;;;;;;103.15;93.35;;;;;;;3.61;100.00;99705.22;5055536;28;20126;-80
2021/11/30 06:31:35;;;;;;;109.28;99.78;;;;;;;4.34;100.00;99709.38;5055481;28;20114;-81
2021/11/30 06:34:02;;;;;;;111.05;100.25;;;;;;;3.41;100.00;99718.91;5055072;28;20053;-81
2021/11/30 06:36:30;;;;;;;113.00;101.63;;;;;;;3.96;100.00;99721.13;5055143;28;20052;-78
2021/11/30 06:38:58;;;;;;;103.78;94.15;;;;;;;3.65;100.00;99722.22;5055446;28;20048;-80
2021/11/30 06:41:25;;;;;;;102.00;91.93;;;;;;;3.26;100.00;99736.50;5055288;28;20049;-80
2021/11/30 06:43:52;;;;;;;99.07;89.00;;;;;;;3.21;100.00;99736.25;5055564;28;20049;-80
2021/11/30 06:46:20;;;;;;;85.72;77.20;;;;;;;3.55;100.00;99742.72;5055061;28;20065;-79
2021/11/30 06:48:46;;;;;;;90.10;80.53;;;;;;;3.56;100.00;99742.53;5055367;28;20143;-80
2021/11/30 06:51:15;;;;;;;94.40;84.50;;;;;;;3.14;100.00;99754.50;5055161;28;20148;-79
2021/11/30 06:53:44;;;;;;;96.60;87.38;;;;;;;3.80;100.00;99761.59;5054713;28;20045;-79
2021/11/30 06:56:11;;;;;;;111.72;100.32;;;;;;;3.64;100.00;99763.44;5054807;28;20079;-79
2021/11/30 06:58:38;;;;;;;96.15;86.22;;;;;;;2.56;100.00;99769.16;5054824;28;20057;-80
2021/11/30 07:01:07;;;;;;;93.18;83.55;;;;;;;2.32;100.00;99778.03;5054398;28;20115;-79
2021/11/30 07:03:34;;;;;;;92.28;83.32;;;;;;;4.48;100.00;99778.66;5054556;28;20052;-80
2021/11/30 07:06:06;;;;;;;91.88;82.47;;;;;;;2.71;100.00;99779.69;5054808;28;20091;-80
2021/11/30 07:11:22;;;;;;;86.18;76.72;;;;;;;2.66;100.00;99782.88;5054578;28;20056;-79
2021/11/30 07:13:49;;;;;;;74.15;66.35;;;;;;;1.76;100.00;99799.19;5055060;28;20152;-79
2021/11/30 07:16:16;;;;;;;83.38;74.80;;;;;;;3.24;100.00;99800.66;5054384;28;20052;-81
2021/11/30 07:18:43;;;;;;;86.07;77.05;;;;;;;1.91;100.00;99809.75;5054303;28;20118;-79
2021/11/30 07:21:10;;;;;;;95.22;85.45;;;;;;;3.11;100.00;99803.91;5054279;28;20088;-80
2021/11/30 07:23:37;;;;;;;86.97;77.78;;;;;;;1.31;100.00;99805.88;5054239;28;20493;-80
2021/11/30 07:26:03;;;;;;;85.38;76.22;;;;;;;1.23;100.00;99805.09;5054782;28;20118;-81
2021/11/30 07:28:33;;;;;;;72.13;64.32;;;;;;;1.27;100.00;99812.44;5055288;28;20049;-80
2021/11/30 07:31:03;;;;;;;81.28;72.78;;;;;;;1.17;100.00;99803.97;5054284;28;20067;-80
2021/11/30 07:33:32;;;;;;;85.57;76.57;;;;;;;1.55;100.00;99810.22;5054035;28;20611;-79
2021/11/30 07:35:59;;;;;;;91.07;81.63;;;;;;;1.91;100.00;99815.00;5054519;28;20110;-81
2021/11/30 07:38:26;;;;;;;76.07;67.97;;;;;;;1.17;100.00;99816.22;5054369;28;20122;-79
2021/11/30 07:40:52;;;;;;;84.18;75.72;;;;;;;2.50;100.00;99822.31;5054142;28;20082;-80
2021/11/30 07:43:19;;;;;;;78.07;69.90;;;;;;;1.18;100.00;99820.47;5053788;28;20508;-81
2021/11/30 07:45:47;;;;;;;81.88;73.07;;;;;;;1.33;100.00;99824.88;5054164;28;20053;-81
2021/11/30 07:48:16;;;;;;;96.57;86.13;;;;;;;2.14;100.00;99820.25;5053748;28;20049;-82
2021/11/30 07:50:43;;;;;;;83.13;74.03;;;;;;;1.68;100.00;99827.19;5053814;28;20049;-82
2021/11/30 07:53:10;;;;;;;82.25;73.45;;;;;;;1.94;100.00;99832.97;5053896;28;20099;-79
2021/11/30 07:55:37;;;;;;;77.07;69.15;;;;;;;1.63;100.00;99838.16;5053699;28;20102;-80
2021/11/30 07:58:04;;;;;;;77.97;69.75;;;;;;;1.46;100.00;99845.25;5054212;28;20179;-80
2021/11/30 08:00:31;;;;;;;81.63;72.97;;;;;;;1.97;100.00;99850.16;5053113;28;20060;-79
2021/11/30 08:02:59;;;;;;;80.25;71.55;;;;;;;1.56;100.00;99853.72;5053964;28;20049;-79
2021/11/30 08:05:26;;;;;;;80.13;70.18;;;;;;;1.24;100.00;99856.41;5053730;28;20107;-81
2021/11/30 08:07:52;;;;;;;73.38;65.75;;;;;;;0.66;100.00;99858.25;5053991;28;20060;-79
2021/11/30 08:10:22;;;;;;;88.03;78.78;;;;;;;2.48;100.00;99868.84;5053761;28;20126;-81
2021/11/30 08:12:49;;;;;;;83.30;74.53;;;;;;;1.76;100.00;99877.72;5053608;28;20132;-79
2021/11/30 08:15:17;;;;;;;71.47;65.07;;;;;;;0.42;100.00;99875.56;5053629;28;20106;-80
2021/11/30 08:17:44;;;;;;;73.15;66.10;;;;;;;1.56;100.00;99884.31;5053471;28;20049;-80
2021/11/30 08:20:13;;;;;;;82.90;74.32;;;;;;;4.17;100.00;99888.53;5053257;28;20444;-79
2021/11/30 08:22:41;;;;;;;79.63;70.88;;;;;;;2.05;100.00;99894.63;5053649;28;20118;-80
2021/11/30 08:25:10;;;;;;;77.55;69.07;;;;;;;1.06;100.00;99894.06;5053598;28;20436;-81
2021/11/30 08:27:37;;;;;;;85.63;72.65;;;;;;;3.50;100.00;99908.69;5053688;28;20049;-80
2021/11/30 08:30:05;;;;;;;79.13;70.63;;;;;;;2.18;100.00;99910.63;5053136;28;20119;-81
2021/11/30 08:32:33;;;;;;;82.40;74.20;;;;;;;2.16;100.00;99915.22;5054234;28;20052;-81
2021/11/30 08:35:00;;;;;;;77.18;68.97;;;;;;;1.29;100.00;99909.88;5053508;28;20072;-80
2021/11/30 08:37:28;;;;;;;77.82;68.50;;;;;;;1.17;100.00;99913.81;5053281;28;20111;-81
2021/11/30 08:39:55;;;;;;;79.05;70.43;;;;;;;0.93;100.00;99925.09;5053122;28;20126;-80
2021/11/30 08:42:23;;;;;;;86.05;76.25;;;;;;;1.19;100.00;99921.50;5053078;28;20064;-80
2021/11/30 08:44:52;;;;;;;82.25;73.45;;;;;;;1.41;100.00;99920.00;5053622;28;20064;-81
2021/11/30 08:47:21;;;;;;;75.93;66.63;;;;;;;1.30;100.00;99924.63;5053109;28;20053;-80
2021/11/30 08:49:48;;;;;;;80.05;71.35;;;;;;;1.15;100.00;99931.50;5053093;28;20558;-81
2021/11/30 08:52:18;;;;;;;84.40;75.35;;;;;;;2.03;100.00;99935.91;5053367;28;20048;-80
2021/11/30 08:54:46;;;;;;;77.80;69.53;;;;;;;0.95;100.00;99943.25;5053195;28;20041;-79
2021/11/30 08:57:14;;;;;;;75.90;67.75;;;;;;;1.91;100.00;99950.34;5053302;28;20049;-80
2021/11/30 08:59:41;;;;;;;76.72;68.65;;;;;;;0.87;100.00;99950.09;5052960;28;20106;-80
2021/11/30 09:02:09;;;;;;;81.93;72.93;;;;;;;0.71;100.00;99957.09;5052996;28;20049;-81
2021/11/30 09:04:36;;;;;;;86.68;72.55;;;;;;;0.58;100.00;99952.34;5053462;28;20112;-80
2021/11/30 09:07:04;;;;;;;93.35;79.07;;;;;;;0.72;100.00;99956.94;5053300;28;20091;-79
2021/11/30 09:09:31;;;;;;;96.88;82.93;;;;;;;0.79;100.00;99963.16;5052806;28;20473;-80
2021/11/30 09:11:59;;;;;;;97.25;81.10;;;;;;;1.03;100.00;99964.16;5053195;28;20045;-80
2021/11/30 09:14:26;;;;;;;94.80;81.30;;;;;;;0.98;100.00;99979.53;5056908;28;20122;-80
2021/11/30 09:16:56;;;;;;;98.18;86.25;;;;;;;0.95;100.00;99975.44;5056580;28;20049;-80
2021/11/30 09:19:24;;;;;;;89.63;76.65;;;;;;;1.05;100.00;99986.56;5056555;28;20537;-80
2021/11/30 09:21:51;;;;;;;92.65;80.97;;;;;;;0.85;100.00;99982.63;5056877;28;20044;-79
2021/11/30 09:24:18;;;;;;;97.15;86.32;;;;;;;1.16;100.00;99979.41;5057096;28;20466;-80
2021/11/30 09:26:45;;;;;;;101.97;87.25;;;;;;;1.29;100.00;99985.75;5056815;28;20122;-79
2021/11/30 09:29:14;;;;;;;106.00;89.20;;;;;;;1.34;100.00;99983.47;5056378;28;20118;-80
2021/11/30 09:31:41;;;;;;;108.93;92.47;;;;;;;1.46;100.00;99983.97;5056777;28;20065;-81
2021/11/30 09:34:08;;;;;;;98.07;84.45;;;;;;;1.27;100.00;99990.34;5056589;28;20114;-80
2021/11/30 09:36:35;;;;;;;107.63;90.93;;;;;;;1.55;100.00;99996.06;5056260;28;20056;-81
2021/11/30 09:39:07;;;;;;;116.20;95.05;;;;;;;1.59;100.00;99996.53;5056290;28;20099;-80
2021/11/30 09:41:35;;;;;;;104.32;87.15;;;;;;;1.56;100.00;99997.69;5056247;28;20049;-80
2021/11/30 09:44:02;;;;;;;95.28;81.85;;;;;;;1.59;100.00;99999.97;5056147;28;20459;-81
2021/11/30 09:46:31;;;;;;;99.10;85.78;;;;;;;1.75;100.00;100006.19;5056395;28;20045;-80
2021/11/30 09:48:58;;;;;;;104.10;85.38;;;;;;;1.65;100.00;100005.53;5056599;28;20049;-79
2021/11/30 09:51:25;;;;;;;99.65;81.93;;;;;;;1.65;100.00;100002.94;5055992;28;20545;-80
2021/11/30 09:53:52;;;;;;;100.85;85.63;;;;;;;1.51;100.00;100010.47;5056484;28;20444;-80
2021/11/30 09:56:19;;;;;;;103.70;88.85;;;;;;;1.57;100.00;100008.97;5056229;28;20205;-79
2021/11/30 09:58:47;;;;;;;98.40;87.38;;;;;;;1.47;100.00;100018.81;5055944;28;20059;-83
2021/11/30 10:01:14;;;;;;;95.55;85.22;;;;;;;1.68;100.00;100024.34;5055624;28;20053;-81
2021/11/30 10:03:44;;;;;;;100.95;89.95;;;;;;;1.69;100.00;100027.78;5056057;28;20049;-80
2021/11/30 10:06:12;;;;;;;144.98;107.50;;;;;;;1.93;100.00;100019.09;5055984;28;20457;-80
2021/11/30 10:08:41;;;;;;;146.82;115.72;;;;;;;2.10;100.00;100025.13;5056034;28;20110;-80
2021/11/30 10:11:10;;;;;;;143.95;113.07;;;;;;;2.24;100.00;100029.66;5055976;28;20456;-80
2021/11/30 10:13:37;;;;;;;119.28;99.95;;;;;;;2.18;100.00;100032.94;5055878;28;20040;-79
2021/11/30 10:16:05;;;;;;;159.35;111.15;;;;;;;2.16;100.00;100034.94;5055506;28;20057;-80
2021/11/30 10:18:35;;;;;;;129.55;103.68;;;;;;;2.14;100.00;100026.41;5055665;28;20049;-80
2021/11/30 10:21:22;;;;;;;107.15;95.38;;;;;;;2.22;100.00;100035.06;5055459;28;20458;-80
2021/11/30 10:23:51;;;;;;;90.28;74.97;;;;;;;1.81;100.00;100042.19;5054893;28;20059;-80
2021/11/30 10:26:20;;;;;;;84.45;73.45;;;;;;;1.84;100.00;100034.81;5055348;28;20400;-80
2021/11/30 10:28:52;;;;;;;96.75;80.03;;;;;;;2.20;100.00;100031.78;5055659;28;20053;-80
2021/11/30 10:31:23;;;;;;;100.78;89.78;;;;;;;2.25;100.00;100034.72;5055542;28;20049;-81
2021/11/30 10:33:51;;;;;;;97.32;84.43;;;;;;;2.37;100.00;100040.44;5055229;28;20110;-80
2021/11/30 10:36:20;;;;;;;91.75;79.78;;;;;;;2.00;100.00;100038.41;5055412;28;20494;-81
2021/11/30 10:38:47;;;;;;;97.10;86.35;;;;;;;2.27;100.00;100043.25;5055272;28;20052;-80
2021/11/30 10:41:17;;;;;;;128.88;102.05;;;;;;;2.21;100.00;100048.31;5055356;28;20041;-80
2021/11/30 10:43:52;;;;;;;89.05;79.82;;;;;;;2.11;100.00;100047.69;5055303;28;20115;-80
2021/11/30 10:46:24;;;;;;;90.47;80.82;;;;;;;2.22;100.00;100055.22;5055433;28;20107;-81
2021/11/30 10:48:51;;;;;;;89.60;79.80;;;;;;;1.88;100.00;100061.50;5055004;28;20546;-80
2021/11/30 10:51:20;;;;;;;89.95;80.75;;;;;;;1.98;100.00;100071.78;5055177;28;20155;-80
2021/11/30 10:53:49;;;;;;;86.15;77.63;;;;;;;1.73;100.00;100071.00;5054912;28;20390;-81
2021/11/30 10:56:19;;;;;;;85.22;76.22;;;;;;;1.83;100.00;100072.47;5055069;28;20053;-79
2021/11/30 10:58:46;;;;;;;95.20;80.25;;;;;;;1.79;100.00;100084.25;5054901;28;20476;-80
2021/11/30 11:01:16;;;;;;;85.72;77.10;;;;;;;1.63;100.00;100070.31;5054501;28;20057;-81
2021/11/30 11:03:46;;;;;;;99.63;89.75;;;;;;;2.08;100.00;100080.28;5054845;28;20048;-81
2021/11/30 11:06:31;;;;;;;102.72;91.70;;;;;;;2.22;100.00;100081.41;5054538;28;20045;-80
2021/11/30 11:09:03;;;;;;;91.55;78.20;;;;;;;2.13;100.00;100098.94;5054908;28;20136;-80
2021/11/30 11:11:32;;;;;;;95.13;84.53;;;;;;;2.10;100.00;100088.00;5054838;28;20052;-79
2021/11/30 11:13:59;;;;;;;96.13;85.82;;;;;;;2.01;100.00;100090.63;5054607;28;20060;-80
2021/11/30 11:16:29;;;;;;;89.43;79.82;;;;;;;2.27;100.00;100090.41;5054781;28;20045;-80
2021/11/30 11:18:57;;;;;;;93.18;83.55;;;;;;;2.17;100.00;100102.88;5054433;28;20053;-80